Dati Storici

Data ora Umidita' aria (%) Temperatura aria (°C) Rad globale (W/m²) Gonioanemometro (°) Tacoanemometro (m/s) Pioggia (mm)
02-11-2012 18:10 84.8 % 13.479 2.349 159.059 0.762 0
02-11-2012 18:00 83.6 % 13.669 4.696 149.76 0.662 0
02-11-2012 17:50 82.1 % 14.041 9.306 114.053 1.358 0
02-11-2012 17:40 80.9 % 14.63 16.195 195.887 0.214 0
02-11-2012 17:30 79.3 % 14.941 23.465 214.024 0.424 0
02-11-2012 17:20 77.9 % 14.967 44.948 86.592 0.516 0
02-11-2012 17:10 76.8 % 15.273 65.768 207.205 0.663 0
02-11-2012 17:00 75.1 % 15.08 52.334 191.195 0.952 0
02-11-2012 16:50 72.4 % 15.567 105.456 126.138 1.786 0
02-11-2012 16:40 71.7 % 15.712 131.721 119.49 1.775 0
02-11-2012 16:30 70.2 % 16.386 153.481 116.12 2.102 0
02-11-2012 16:20 69 % 16.407 172.971 137.714 1.452 0
02-11-2012 16:10 68 % 16.644 217.038 135.983 1.628 0
02-11-2012 16:00 67.2 % 16.546 225.322 108.02 1.543 0
02-11-2012 15:50 65.5 % 17.034 245.743 157.695 1.5 0
02-11-2012 15:40 66 % 16.772 266.533 221.586 1.659 0
02-11-2012 15:30 65 % 16.699 296.557 153.044 1.433 0
02-11-2012 15:20 65.7 % 16.466 329.017 191.083 3.098 0
02-11-2012 15:10 64.3 % 16.851 344.701 242.714 1.266 0
02-11-2012 15:00 65.3 % 16.694 363.127 182.908 0.746 0

I dati sono presentati in modo automatico a scopo informativo. In seguito a verifica i dati possono subire modifiche o essere invalidati e non riportati negli archivi definitivi.